Altamont, Illinois
Current Conditions -  °F | °C
As of 5:55 PM on Monday 22 Dec 2014 (Local Time) from K1H2 Reporting Station
Heavy Rain Heavy Rain  
Wind Chill:   Ceiling: 500
Heat Index:   Visibility: 3mi
Dew Point:   Wind: 12mph
Humidity: 90%   Direction: 110°ESE
Pressure: 29.62"   Gusts: NA
Location:  39.06°N, 88.75°W
Report Text: K1H2 222355Z AUTO 11010KT 3SM +RA OVC005 09/07 A2962 RMK AO2 P0012 60029 T00860071 10086 20065
Loading
Personal Weather Stations






























Interactive Weather Map New forecast layout! Learn more

10-Day Weather Forecast

Advertisements
Track Severe Weather on mobile